Time;durP1;ratioP1;P1;durP2;ratioP2;P2;SDS_P1;SDS_P2;PMS_P1;PMS_P2;Temp;Humidity;BMP_temperature;BMP_pressure;BME280_temperature;BME280_humidity;BME280_pressure;Samples;Min_cycle;Max_cycle;Signal;HPM_P1;HPM_P2
2022/04/16 00:00:28;;;;;;;18.98;11.13;;;9.10;99.90;;;;;;5050084;28;20216;-77
2022/04/16 00:02:54;;;;;;;18.40;10.05;;;9.00;99.90;;;;;;5049535;28;20041;-77
2022/04/16 00:05:23;;;;;;;15.93;10.85;;;8.90;99.90;;;;;;5031494;28;20102;-77
2022/04/16 00:08:06;;;;;;;13.90;10.18;;;8.90;99.90;;;;;;5053078;28;20116;-77
2022/04/16 00:10:37;;;;;;;17.98;11.38;;;8.80;99.90;;;;;;5058497;28;20110;-77
2022/04/16 00:13:03;;;;;;;16.05;10.60;;;8.80;99.90;;;;;;5041535;28;20375;-77
2022/04/16 00:15:31;;;;;;;17.95;11.18;;;8.70;99.90;;;;;;5049640;28;20052;-77
2022/04/16 00:17:57;;;;;;;18.77;11.95;;;8.70;99.90;;;;;;5049333;28;20049;-77
2022/04/16 00:20:27;;;;;;;16.50;11.32;;;8.70;99.90;;;;;;5035504;28;20044;-77
2022/04/16 00:22:54;;;;;;;19.27;11.50;;;8.60;99.90;;;;;;5051698;28;20053;-77
2022/04/16 00:25:20;;;;;;;20.50;13.43;;;8.60;99.90;;;;;;5060516;28;20133;-77
2022/04/16 00:27:49;;;;;;;19.23;12.38;;;8.60;99.90;;;;;;5035047;28;20465;-77
2022/04/16 00:30:17;;;;;;;19.75;12.50;;;8.50;99.90;;;;;;5031232;28;20041;-77
2022/04/16 00:32:44;;;;;;;18.35;11.80;;;8.50;99.90;;;;;;5031593;28;20045;-77
2022/04/16 00:35:10;;;;;;;18.08;12.07;;;8.40;99.90;;;;;;5049358;28;20102;-77
2022/04/16 00:37:36;;;;;;;18.17;12.05;;;8.40;99.90;;;;;;5036155;28;20052;-77
2022/04/16 00:40:02;;;;;;;19.92;12.73;;;8.40;99.90;;;;;;5029529;28;20048;-77
2022/04/16 00:42:37;;;;;;;18.60;12.60;;;8.30;99.90;;;;;;5038139;28;20044;-78
2022/04/16 00:45:03;;;;;;;19.75;13.02;;;8.30;99.90;;;;;;5054020;28;20044;-78
2022/04/16 00:47:28;;;;;;;21.58;14.30;;;8.20;99.90;;;;;;5041247;28;20464;-77
2022/04/16 00:49:54;;;;;;;21.23;13.13;;;8.30;99.90;;;;;;5060162;28;20044;-77
2022/04/16 00:52:21;;;;;;;22.83;13.77;;;8.30;99.90;;;;;;5045673;28;20033;-77
2022/04/16 00:54:48;;;;;;;21.75;14.32;;;8.20;99.90;;;;;;5047231;28;20610;-77
2022/04/16 00:57:15;;;;;;;21.08;13.82;;;8.20;99.90;;;;;;5055682;28;20068;-77
2022/04/16 00:59:40;;;;;;;19.17;13.13;;;8.20;99.90;;;;;;5046126;28;20070;-78
2022/04/16 01:02:09;;;;;;;20.80;12.98;;;8.10;99.90;;;;;;5054265;28;20131;-77
2022/04/16 01:04:35;;;;;;;20.63;13.98;;;8.10;99.90;;;;;;5049681;28;20546;-77
2022/04/16 01:07:01;;;;;;;21.77;13.60;;;8.10;99.90;;;;;;5035273;28;20037;-77
2022/04/16 01:09:26;;;;;;;19.67;12.95;;;8.10;99.90;;;;;;5050982;28;20040;-77
2022/04/16 01:11:52;;;;;;;22.15;13.43;;;8.10;99.90;;;;;;5056906;28;20043;-78
2022/04/16 01:14:25;;;;;;;21.60;14.23;;;8.10;99.90;;;;;;5065433;28;20094;-78
2022/04/16 01:16:53;;;;;;;22.33;13.77;;;8.20;99.90;;;;;;5038701;28;20045;-78
2022/04/16 01:19:21;;;;;;;20.15;12.40;;;8.20;99.90;;;;;;5037027;28;20499;-77
2022/04/16 01:21:47;;;;;;;20.27;12.77;;;8.20;99.90;;;;;;5043818;28;20041;-78
2022/04/16 01:24:14;;;;;;;20.90;13.10;;;8.30;99.90;;;;;;5049185;28;20454;-77
2022/04/16 01:26:41;;;;;;;18.88;13.25;;;8.20;99.90;;;;;;5048583;28;20105;-78
2022/04/16 01:29:10;;;;;;;20.90;13.30;;;8.30;99.90;;;;;;5067133;28;20396;-77
2022/04/16 01:31:36;;;;;;;21.55;14.57;;;8.10;99.90;;;;;;5049739;28;20072;-77
2022/04/16 01:34:03;;;;;;;21.98;13.85;;;8.30;99.90;;;;;;5063646;28;20079;-77
2022/04/16 01:36:30;;;;;;;21.42;13.40;;;8.30;99.90;;;;;;5037784;28;20070;-77
2022/04/16 01:38:59;;;;;;;22.85;14.68;;;8.30;99.90;;;;;;5057469;28;20396;-77
2022/04/16 01:41:25;;;;;;;22.00;15.52;;;8.30;99.90;;;;;;5054983;28;20033;-76
2022/04/16 01:43:51;;;;;;;23.83;14.10;;;8.30;99.90;;;;;;5064363;28;20056;-77
2022/04/16 01:46:17;;;;;;;20.75;14.30;;;8.30;99.90;;;;;;5060132;28;20048;-76
2022/04/16 01:48:43;;;;;;;20.00;13.82;;;8.30;99.90;;;;;;5048584;28;20315;-77
2022/04/16 01:51:08;;;;;;;20.95;13.93;;;8.30;99.90;;;;;;5048118;28;20049;-77
2022/04/16 01:53:35;;;;;;;21.98;14.25;;;8.30;99.90;;;;;;5052587;28;20037;-77
2022/04/16 01:56:00;;;;;;;22.33;14.65;;;8.20;99.90;;;;;;5046903;28;20107;-77
2022/04/16 01:58:26;;;;;;;20.33;13.52;;;8.20;99.90;;;;;;5046313;28;20535;-77
2022/04/16 02:00:52;;;;;;;20.05;13.57;;;8.20;99.90;;;;;;5039278;28;20049;-77
2022/04/16 02:03:21;;;;;;;22.55;14.95;;;8.20;99.90;;;;;;5047737;28;20123;-77
2022/04/16 02:05:47;;;;;;;22.42;14.82;;;8.10;99.90;;;;;;5046485;28;20052;-79
2022/04/16 02:08:13;;;;;;;21.08;14.25;;;8.10;99.90;;;;;;5032327;28;20468;-77
2022/04/16 02:10:39;;;;;;;23.23;15.13;;;8.10;99.90;;;;;;5028726;28;20055;-77
2022/04/16 02:13:04;;;;;;;21.13;14.52;;;8.00;99.90;;;;;;5029720;28;20423;-77
2022/04/16 02:15:30;;;;;;;22.33;15.90;;;7.90;99.90;;;;;;5041835;28;20040;-77
2022/04/16 02:17:56;;;;;;;23.27;16.13;;;8.00;99.90;;;;;;5065603;28;20048;-77
2022/04/16 02:20:23;;;;;;;24.63;15.88;;;8.00;99.90;;;;;;5056785;28;20050;-77
2022/04/16 02:22:49;;;;;;;25.13;15.55;;;8.00;99.90;;;;;;5044777;28;20043;-77
2022/04/16 02:25:20;;;;;;;27.00;17.55;;;8.00;99.90;;;;;;5028774;28;20041;-77
2022/04/16 02:27:46;;;;;;;24.10;16.65;;;8.00;99.90;;;;;;5056272;28;20098;-77
2022/04/16 02:30:16;;;;;;;25.05;16.77;;;8.00;99.90;;;;;;5048832;28;20440;-77
2022/04/16 02:32:45;;;;;;;29.77;17.75;;;8.10;99.90;;;;;;5042143;28;20473;-77
2022/04/16 02:35:13;;;;;;;25.90;16.85;;;8.10;99.90;;;;;;5033136;28;20056;-77
2022/04/16 02:37:39;;;;;;;25.58;16.38;;;8.10;99.90;;;;;;5034625;28;20044;-76
2022/04/16 02:40:05;;;;;;;24.42;16.48;;;8.20;99.90;;;;;;5064300;28;20091;-77
2022/04/16 02:42:42;;;;;;;27.83;19.00;;;8.20;99.90;;;;;;5048966;28;20226;-78
2022/04/16 02:47:55;;;;;;;29.60;18.05;;;8.30;99.90;;;;;;5073187;28;20455;-78
2022/04/16 02:50:25;;;;;;;27.38;17.38;;;8.30;99.90;;;;;;5091828;28;20040;-77
2022/04/16 02:52:55;;;;;;;27.33;18.25;;;8.30;99.90;;;;;;5053655;28;20044;-77
2022/04/16 02:55:25;;;;;;;28.50;18.10;;;8.40;99.90;;;;;;5061717;28;20072;-76
2022/04/16 02:57:50;;;;;;;26.13;18.33;;;8.40;99.90;;;;;;5063717;28;20061;-77
2022/04/16 03:00:23;;;;;;;25.67;17.80;;;8.40;99.90;;;;;;5051232;28;20487;-78
2022/04/16 03:02:53;;;;;;;28.10;18.05;;;8.40;99.90;;;;;;5051047;28;20234;-77
2022/04/16 03:05:19;;;;;;;29.80;19.27;;;8.40;99.90;;;;;;5038772;28;20055;-78
2022/04/16 03:07:45;;;;;;;27.17;18.67;;;8.50;99.90;;;;;;5054237;28;20037;-78
2022/04/16 03:10:11;;;;;;;27.20;18.20;;;8.50;99.90;;;;;;5032405;28;20139;-77
2022/04/16 03:12:45;;;;;;;24.80;17.75;;;8.50;99.90;;;;;;5057339;28;20106;-77
2022/04/16 03:17:57;;;;;;;27.05;18.83;;;8.60;99.90;;;;;;5037652;28;20049;-78
2022/04/16 03:20:22;;;;;;;31.92;20.70;;;8.60;99.90;;;;;;5037194;28;20040;-78
2022/04/16 03:22:48;;;;;;;27.02;19.02;;;8.60;99.90;;;;;;5050598;28;20516;-78
2022/04/16 03:25:14;;;;;;;31.02;20.80;;;8.60;99.90;;;;;;5051888;28;20117;-78
2022/04/16 03:27:40;;;;;;;29.27;19.98;;;8.60;99.90;;;;;;5037473;28;20431;-78
2022/04/16 03:30:07;;;;;;;29.83;20.10;;;8.60;99.90;;;;;;5050639;28;20049;-77
2022/04/16 03:32:37;;;;;;;32.30;20.77;;;8.70;99.90;;;;;;5033278;28;20044;-77
2022/04/16 03:35:05;;;;;;;34.65;22.33;;;8.70;99.90;;;;;;5040751;28;20036;-78
2022/04/16 03:37:32;;;;;;;30.38;20.75;;;8.70;99.90;;;;;;5049733;28;20044;-77
2022/04/16 03:39:58;;;;;;;32.28;20.73;;;8.70;99.90;;;;;;5049863;28;20404;-77
2022/04/16 03:42:23;;;;;;;32.22;20.95;;;8.60;99.90;;;;;;5031755;28;20060;-77
2022/04/16 03:44:49;;;;;;;33.70;21.38;;;8.70;99.90;;;;;;5050509;28;20052;-77
2022/04/16 03:47:14;;;;;;;36.80;21.38;;;8.70;99.90;;;;;;5056628;28;20044;-78
2022/04/16 03:49:40;;;;;;;31.17;20.73;;;8.70;99.90;;;;;;5064112;28;20488;-78
2022/04/16 03:52:06;;;;;;;30.27;21.85;;;8.70;99.90;;;;;;5040749;28;20036;-77
2022/04/16 04:00:00;;;;;;;33.38;23.50;;;8.60;99.90;;;;;;5049571;28;20495;-77
2022/04/16 04:02:38;;;;;;;33.05;21.75;;;8.60;99.90;;;;;;5034735;28;20040;-78
2022/04/16 04:05:05;;;;;;;36.10;23.20;;;8.60;99.90;;;;;;5036077;28;20126;-76
2022/04/16 04:07:31;;;;;;;37.67;23.13;;;8.60;99.90;;;;;;5055578;28;20587;-78
2022/04/16 04:09:59;;;;;;;35.97;23.92;;;8.60;99.90;;;;;;5050481;28;20533;-78
2022/04/16 04:12:25;;;;;;;38.10;24.77;;;8.60;99.90;;;;;;5063993;28;20092;-78
2022/04/16 04:14:51;;;;;;;39.10;25.98;;;8.60;99.90;;;;;;5057272;28;20048;-78
2022/04/16 04:17:17;;;;;;;36.75;24.40;;;8.50;99.90;;;;;;5049605;28;20396;-78
2022/04/16 04:19:47;;;;;;;42.50;25.95;;;8.50;99.90;;;;;;5038874;28;20492;-78
2022/04/16 04:22:16;;;;;;;34.70;23.33;;;8.50;99.90;;;;;;5050294;28;20669;-77
2022/04/16 04:24:42;;;;;;;37.28;24.33;;;8.50;99.90;;;;;;5050316;28;20037;-77
2022/04/16 04:27:08;;;;;;;36.00;23.17;;;8.50;99.90;;;;;;5030881;28;20396;-78
2022/04/16 04:29:38;;;;;;;36.28;24.25;;;8.50;99.90;;;;;;5041374;28;20072;-79
2022/04/16 04:32:05;;;;;;;34.60;22.70;;;8.50;99.90;;;;;;5066352;28;20044;-78
2022/04/16 04:34:31;;;;;;;37.25;24.17;;;8.50;99.90;;;;;;5068958;28;20455;-78
2022/04/16 04:36:57;;;;;;;32.35;21.95;;;8.40;99.90;;;;;;5037543;28;20044;-77
2022/04/16 04:39:23;;;;;;;33.60;22.88;;;8.50;99.90;;;;;;5056597;28;20040;-78
2022/04/16 04:41:48;;;;;;;33.72;23.48;;;8.40;99.90;;;;;;5048079;28;20064;-78
2022/04/16 04:44:15;;;;;;;33.30;20.80;;;8.40;99.90;;;;;;5056337;28;20064;-78
2022/04/16 04:46:41;;;;;;;36.22;23.33;;;8.40;99.90;;;;;;5031012;28;20126;-78
2022/04/16 04:49:08;;;;;;;35.25;22.63;;;8.40;99.90;;;;;;5050878;28;20048;-78
2022/04/16 04:51:38;;;;;;;36.10;23.13;;;8.40;99.90;;;;;;5038966;28;20484;-78
2022/04/16 04:54:05;;;;;;;34.53;23.70;;;8.40;99.90;;;;;;5049427;28;20052;-77
2022/04/16 04:56:31;;;;;;;33.95;21.45;;;8.40;99.90;;;;;;5053585;28;20059;-78
2022/04/16 04:58:57;;;;;;;31.33;22.05;;;8.40;99.90;;;;;;5044806;28;20064;-77
2022/04/16 05:01:23;;;;;;;32.17;21.65;;;8.40;99.90;;;;;;5050010;28;20048;-77
2022/04/16 05:03:49;;;;;;;33.20;21.15;;;8.40;99.90;;;;;;5049604;28;20098;-77
2022/04/16 05:06:14;;;;;;;31.90;19.92;;;8.40;99.90;;;;;;5030564;28;20049;-78
2022/04/16 05:08:40;;;;;;;27.48;18.45;;;8.40;99.90;;;;;;5043148;28;20057;-77
2022/04/16 05:11:06;;;;;;;30.13;18.45;;;8.40;99.90;;;;;;5047137;28;20068;-79
2022/04/16 05:13:31;;;;;;;28.50;17.70;;;8.40;99.90;;;;;;5047981;28;20040;-78
2022/04/16 05:15:57;;;;;;;28.00;18.35;;;8.40;99.90;;;;;;5033280;28;20064;-78
2022/04/16 05:18:22;;;;;;;23.50;16.17;;;8.40;99.90;;;;;;5053937;28;20681;-77
2022/04/16 05:20:48;;;;;;;28.00;17.63;;;8.40;99.90;;;;;;5038551;28;20044;-76
2022/04/16 05:23:14;;;;;;;27.80;17.33;;;8.50;99.90;;;;;;5037066;28;20037;-77
2022/04/16 05:25:39;;;;;;;23.63;16.67;;;8.50;99.90;;;;;;5047454;28;20033;-77
2022/04/16 05:28:05;;;;;;;24.02;16.33;;;8.50;99.90;;;;;;5057734;28;20043;-77
2022/04/16 05:30:38;;;;;;;24.38;16.15;;;8.50;99.90;;;;;;5036005;28;20044;-77
2022/04/16 05:33:16;;;;;;;27.85;18.00;;;8.50;99.90;;;;;;5038680;28;20140;-77
2022/04/16 05:35:42;;;;;;;26.67;18.58;;;8.60;99.90;;;;;;5030270;28;20405;-77
2022/04/16 05:38:07;;;;;;;34.58;18.70;;;8.60;99.90;;;;;;5049225;28;20045;-80
2022/04/16 05:40:33;;;;;;;33.50;18.85;;;8.60;99.90;;;;;;5030166;28;20102;-79
2022/04/16 05:43:01;;;;;;;27.13;17.02;;;8.60;99.90;;;;;;5046487;28;20037;-79
2022/04/16 05:45:27;;;;;;;31.65;18.45;;;8.60;99.90;;;;;;5049484;28;20044;-80
2022/04/16 05:47:53;;;;;;;27.38;18.17;;;8.60;99.90;;;;;;5074924;28;20042;-79
2022/04/16 05:50:18;;;;;;;26.00;17.48;;;8.60;99.90;;;;;;5036808;28;20183;-78
2022/04/16 05:52:44;;;;;;;27.90;17.63;;;8.70;99.90;;;;;;5048281;28;20056;-79
2022/04/16 05:55:11;;;;;;;33.03;18.65;;;8.70;99.90;;;;;;5030905;28;20051;-78
2022/04/16 05:57:37;;;;;;;24.35;17.05;;;8.70;99.90;;;;;;5044168;28;20312;-78
2022/04/16 06:00:04;;;;;;;30.15;17.25;;;8.70;99.90;;;;;;5036217;28;20049;-79
2022/04/16 06:02:34;;;;;;;29.05;17.30;;;8.70;99.90;;;;;;5029857;28;20126;-79
2022/04/16 06:04:59;;;;;;;26.38;16.67;;;8.70;99.90;;;;;;5036739;28;20128;-77
2022/04/16 06:07:25;;;;;;;33.03;17.08;;;8.70;99.90;;;;;;5046081;28;20124;-78
2022/04/16 06:09:50;;;;;;;27.52;16.95;;;8.70;99.90;;;;;;5037693;28;20568;-79
2022/04/16 06:12:16;;;;;;;25.85;15.30;;;8.70;99.90;;;;;;5026465;28;20056;-78
2022/04/16 06:14:42;;;;;;;28.27;16.50;;;8.70;99.90;;;;;;5034510;28;20120;-79
2022/04/16 06:17:07;;;;;;;26.88;16.42;;;8.70;99.90;;;;;;5046027;28;20091;-80
2022/04/16 06:19:33;;;;;;;29.40;16.23;;;8.80;99.90;;;;;;5043066;28;20076;-79
2022/04/16 06:21:58;;;;;;;27.95;15.90;;;8.80;99.90;;;;;;5050959;28;20048;-77
2022/04/16 06:24:24;;;;;;;25.88;16.20;;;8.80;99.90;;;;;;5050296;28;20049;-78
2022/04/16 06:26:49;;;;;;;23.90;15.93;;;8.90;99.90;;;;;;5038364;28;20046;-77
2022/04/16 06:29:18;;;;;;;22.35;14.60;;;8.90;99.90;;;;;;5032749;28;20551;-79
2022/04/16 06:31:44;;;;;;;25.42;15.75;;;9.00;99.90;;;;;;5031036;28;20125;-79
2022/04/16 06:34:09;;;;;;;25.08;15.57;;;9.00;99.90;;;;;;5036251;28;20140;-78
2022/04/16 06:36:35;;;;;;;28.15;16.10;;;9.00;99.90;;;;;;5051676;28;20124;-80
2022/04/16 06:39:00;;;;;;;25.70;15.13;;;9.10;99.90;;;;;;5047903;28;20079;-79
2022/04/16 06:41:26;;;;;;;24.73;15.15;;;9.10;99.90;;;;;;5050995;28;20056;-78
2022/04/16 06:43:51;;;;;;;28.00;16.02;;;9.20;99.90;;;;;;5045867;28;20422;-78
2022/04/16 06:46:17;;;;;;;24.52;15.18;;;9.20;99.90;;;;;;5034282;28;20059;-79
2022/04/16 06:48:43;;;;;;;23.17;15.55;;;9.30;99.90;;;;;;5037715;28;20048;-77
2022/04/16 06:51:08;;;;;;;25.05;14.80;;;9.30;99.90;;;;;;5054416;28;20091;-77
2022/04/16 06:53:34;;;;;;;23.33;15.40;;;9.30;99.90;;;;;;5040911;28;20136;-77
2022/04/16 06:56:00;;;;;;;24.35;14.38;;;9.30;99.90;;;;;;5035694;28;20072;-79
2022/04/16 06:58:29;;;;;;;25.90;15.50;;;9.30;99.90;;;;;;5045662;28;20411;-78
2022/04/16 07:00:55;;;;;;;22.38;13.75;;;9.30;99.90;;;;;;5039700;28;20052;-78
2022/04/16 07:03:21;;;;;;;24.80;14.35;;;9.40;99.90;;;;;;5060180;28;20037;-77
2022/04/16 07:05:47;;;;;;;26.00;13.55;;;9.40;99.90;;;;;;5033118;28;20404;-77
2022/04/16 07:08:12;;;;;;;22.08;13.68;;;9.50;99.90;;;;;;5033422;28;20126;-77
2022/04/16 07:10:39;;;;;;;19.95;12.93;;;9.50;99.90;;;;;;5032755;28;20073;-77
2022/04/16 07:13:05;;;;;;;21.60;12.70;;;9.50;99.90;;;;;;5032168;28;20033;-77
2022/04/16 07:15:33;;;;;;;23.15;12.95;;;9.60;99.90;;;;;;5052987;28;20059;-77
2022/04/16 07:17:59;;;;;;;21.42;12.65;;;9.60;99.90;;;;;;5041922;28;20140;-78
2022/04/16 07:20:25;;;;;;;24.40;12.40;;;9.60;99.90;;;;;;5052231;28;20120;-78
2022/04/16 07:22:50;;;;;;;19.92;12.02;;;9.60;99.90;;;;;;5050765;28;20045;-78
2022/04/16 07:25:21;;;;;;;21.95;12.93;;;9.70;99.90;;;;;;5055514;28;20533;-77
2022/04/16 07:27:46;;;;;;;21.35;12.00;;;9.70;99.90;;;;;;5048979;28;20382;-77
2022/04/16 07:30:13;;;;;;;19.63;12.55;;;9.70;99.90;;;;;;5065644;28;20106;-78
2022/04/16 07:32:39;;;;;;;19.27;11.15;;;9.70;99.90;;;;;;5063841;28;20143;-78
2022/04/16 07:35:08;;;;;;;17.98;10.98;;;9.80;99.90;;;;;;5052082;28;20123;-78
2022/04/16 07:37:34;;;;;;;21.67;12.45;;;9.80;99.90;;;;;;5051795;28;20121;-78
2022/04/16 07:40:00;;;;;;;20.67;12.07;;;9.80;99.90;;;;;;5064682;28;20119;-78
2022/04/16 07:42:32;;;;;;;17.83;10.30;;;9.80;99.90;;;;;;5067671;28;20045;-77
2022/04/16 07:45:02;;;;;;;18.00;11.68;;;9.90;99.90;;;;;;5038700;28;20032;-78
2022/04/16 07:47:28;;;;;;;19.33;9.93;;;9.80;99.90;;;;;;5037802;28;20056;-79
2022/04/16 07:49:54;;;;;;;18.40;10.85;;;9.90;99.90;;;;;;5039552;28;20064;-79
2022/04/16 07:52:25;;;;;;;16.27;10.05;;;9.90;99.90;;;;;;5058929;28;20032;-78
2022/04/16 07:54:51;;;;;;;14.68;9.35;;;9.90;99.90;;;;;;5031248;28;20143;-78
2022/04/16 07:57:17;;;;;;;17.38;10.30;;;9.90;99.90;;;;;;5064748;28;20080;-77
2022/04/16 07:59:42;;;;;;;18.33;8.52;;;10.00;99.90;;;;;;5069865;28;20095;-79
2022/04/16 08:02:08;;;;;;;19.35;9.18;;;10.00;99.90;;;;;;5037036;28;20051;-78
2022/04/16 08:04:34;;;;;;;16.60;9.10;;;10.10;99.90;;;;;;5032632;28;20049;-78
2022/04/16 08:07:09;;;;;;;16.08;8.10;;;10.10;99.90;;;;;;5031649;28;20051;-78
2022/04/16 08:09:35;;;;;;;15.77;8.48;;;10.20;99.90;;;;;;5053423;28;20132;-78
2022/04/16 08:12:00;;;;;;;14.82;8.43;;;10.20;99.90;;;;;;5049179;28;20033;-78
2022/04/16 08:14:26;;;;;;;14.40;7.85;;;10.20;99.90;;;;;;5054023;28;20488;-76
2022/04/16 08:16:52;;;;;;;14.13;7.43;;;10.10;99.90;;;;;;5048964;28;20051;-77
2022/04/16 08:19:18;;;;;;;13.02;7.65;;;10.30;99.90;;;;;;5053555;28;20344;-77
2022/04/16 08:21:44;;;;;;;10.95;6.60;;;10.30;99.90;;;;;;5031058;28;20048;-77
2022/04/16 08:24:13;;;;;;;9.60;6.15;;;10.30;99.90;;;;;;5030019;28;20129;-77
2022/04/16 08:26:40;;;;;;;11.55;6.38;;;10.40;99.90;;;;;;5031415;28;20043;-78
2022/04/16 08:29:06;;;;;;;10.48;6.13;;;10.40;99.90;;;;;;5054127;28;20109;-78
2022/04/16 08:31:31;;;;;;;10.45;5.57;;;10.40;99.90;;;;;;5035410;28;20112;-81
2022/04/16 08:33:57;;;;;;;10.27;5.70;;;10.40;99.90;;;;;;5090245;28;20036;-78
2022/04/16 08:36:23;;;;;;;9.18;5.20;;;10.40;99.90;;;;;;5041745;28;20075;-77
2022/04/16 08:38:48;;;;;;;10.25;4.65;;;10.50;99.90;;;;;;5067960;28;20503;-78
2022/04/16 08:41:14;;;;;;;7.00;4.60;;;10.50;99.90;;;;;;5062000;28;20044;-78
2022/04/16 08:43:42;;;;;;;8.77;4.82;;;10.60;99.90;;;;;;5052214;28;20108;-77
2022/04/16 08:46:08;;;;;;;5.78;3.60;;;10.70;99.90;;;;;;5042871;28;20087;-77
2022/04/16 08:48:35;;;;;;;7.40;4.28;;;10.70;99.90;;;;;;5052410;28;20098;-76
2022/04/16 08:51:11;;;;;;;6.88;3.50;;;10.80;99.90;;;;;;5038660;28;20044;-76
2022/04/16 08:53:36;;;;;;;6.50;3.38;;;10.80;99.90;;;;;;5044157;28;20040;-77
2022/04/16 08:56:02;;;;;;;6.55;3.88;;;10.80;99.90;;;;;;5047714;28;20562;-78
2022/04/16 08:58:31;;;;;;;5.55;3.30;;;10.90;99.90;;;;;;5045170;28;20292;-76
2022/04/16 09:00:56;;;;;;;5.97;2.97;;;10.90;99.90;;;;;;5068624;28;20048;-77
2022/04/16 09:03:29;;;;;;;7.88;3.50;;;11.00;99.90;;;;;;5067900;28;20051;-76
2022/04/16 09:05:55;;;;;;;7.07;3.55;;;11.00;99.90;;;;;;5056203;28;20527;-77
2022/04/16 09:08:31;;;;;;;6.22;3.03;;;11.00;99.90;;;;;;5049802;28;20040;-76
2022/04/16 09:11:07;;;;;;;6.38;3.42;;;11.00;99.90;;;;;;5049706;28;20505;-77
2022/04/16 09:13:33;;;;;;;6.72;3.03;;;11.00;99.90;;;;;;5049697;28;20072;-77
2022/04/16 09:16:10;;;;;;;5.10;1.67;;;11.00;99.90;;;;;;5065147;28;20041;-77
2022/04/16 09:18:52;;;;;;;3.78;1.30;;;11.10;99.90;;;;;;5030488;28;20045;-77
2022/04/16 09:21:19;;;;;;;2.80;1.30;;;11.10;99.90;;;;;;5037073;28;20075;-77
2022/04/16 09:23:53;;;;;;;4.13;1.60;;;11.00;99.90;;;;;;5068474;28;20114;-77
2022/04/16 09:26:33;;;;;;;3.10;1.55;;;11.10;98.80;;;;;;5047789;28;20127;-77
2022/04/16 09:29:18;;;;;;;2.92;1.13;;;11.10;98.30;;;;;;5040091;28;20080;-78
2022/04/16 09:31:49;;;;;;;4.50;1.13;;;11.20;97.50;;;;;;5059304;28;20487;-77
2022/04/16 09:34:19;;;;;;;3.47;0.90;;;11.10;96.90;;;;;;5052424;28;20444;-76
2022/04/16 09:36:46;;;;;;;3.67;1.00;;;11.20;96.20;;;;;;5063002;28;20333;-78
2022/04/16 09:39:12;;;;;;;1.80;0.60;;;11.10;95.70;;;;;;5067382;28;20083;-78
2022/04/16 09:41:40;;;;;;;1.10;0.80;;;11.20;94.90;;;;;;5046497;28;20036;-77
2022/04/16 09:44:25;;;;;;;2.40;0.70;;;11.30;94.50;;;;;;5032322;28;20045;-78
2022/04/16 09:46:52;;;;;;;3.00;1.10;;;11.40;94.40;;;;;;5030058;28;20060;-78
2022/04/16 09:49:18;;;;;;;2.30;1.02;;;11.40;94.20;;;;;;5059915;28;20094;-76
2022/04/16 09:51:46;;;;;;;1.55;0.80;;;11.40;93.40;;;;;;5090225;28;20120;-78
2022/04/16 09:54:12;;;;;;;2.75;1.00;;;11.50;93.60;;;;;;5092247;28;20115;-77
2022/04/16 09:56:40;;;;;;;1.88;0.90;;;11.50;93.50;;;;;;5048720;28;20460;-77
2022/04/16 09:59:12;;;;;;;2.95;0.90;;;11.60;93.00;;;;;;5057834;28;20102;-77
2022/04/16 10:01:39;;;;;;;2.95;1.02;;;11.70;92.90;;;;;;5036917;28;20053;-81
2022/04/16 10:04:07;;;;;;;2.72;0.90;;;11.70;92.10;;;;;;5034568;28;20049;-79
2022/04/16 10:06:37;;;;;;;2.05;0.93;;;11.80;92.20;;;;;;5061030;28;20062;-79
2022/04/16 10:09:16;;;;;;;5.10;1.13;;;11.80;91.50;;;;;;5070818;28;20048;-80
2022/04/16 10:14:44;;;;;;;4.95;1.30;;;11.90;90.80;;;;;;5050712;28;20052;-77
2022/04/16 10:17:30;;;;;;;1.58;0.93;;;12.00;90.60;;;;;;5052337;28;20048;-77
2022/04/16 10:20:07;;;;;;;1.92;0.80;;;12.00;90.20;;;;;;5045525;28;20117;-77
2022/04/16 10:22:34;;;;;;;4.60;0.65;;;12.10;89.20;;;;;;5045893;28;20132;-76
2022/04/16 10:24:59;;;;;;;1.00;0.57;;;12.10;86.10;;;;;;5033087;28;20045;-77
2022/04/16 10:27:48;;;;;;;2.25;0.60;;;12.20;83.30;;;;;;5033674;28;20051;-76
2022/04/16 10:30:14;;;;;;;1.60;0.50;;;12.20;82.80;;;;;;5051546;28;20075;-76
2022/04/16 10:32:41;;;;;;;2.17;0.98;;;12.30;82.20;;;;;;5052893;28;20051;-76
2022/04/16 10:35:16;;;;;;;2.63;0.90;;;12.40;82.50;;;;;;5033649;28;20142;-77
2022/04/16 10:37:44;;;;;;;1.30;0.65;;;12.50;81.40;;;;;;5044393;28;20504;-77
2022/04/16 10:40:22;;;;;;;1.02;0.60;;;12.50;79.40;;;;;;5057723;28;20370;-76
2022/04/16 10:42:59;;;;;;;4.82;0.88;;;12.60;77.80;;;;;;5034500;28;20049;-76
2022/04/16 10:45:25;;;;;;;1.83;0.68;;;12.80;77.80;;;;;;5040558;28;20033;-76
2022/04/16 10:47:54;;;;;;;2.20;0.90;;;12.80;77.30;;;;;;5050498;28;20044;-76
2022/04/16 10:50:23;;;;;;;1.70;0.70;;;13.00;75.90;;;;;;5057819;28;20439;-77
2022/04/16 10:52:58;;;;;;;1.80;0.73;;;13.10;73.90;;;;;;5041077;28;20429;-79
2022/04/16 10:55:30;;;;;;;1.90;0.90;;;13.20;74.00;;;;;;5035805;28;20451;-78
2022/04/16 10:58:06;;;;;;;4.75;0.98;;;13.30;73.80;;;;;;5074174;28;20132;-78
2022/04/16 11:00:40;;;;;;;1.27;0.70;;;13.50;73.00;;;;;;5072904;28;20051;-78
2022/04/16 11:03:17;;;;;;;2.33;0.80;;;13.60;72.20;;;;;;5040444;28;20045;-78
2022/04/16 11:05:43;;;;;;;2.45;0.80;;;13.80;71.50;;;;;;5042103;28;20049;-78
2022/04/16 11:08:14;;;;;;;2.50;1.00;;;13.90;71.80;;;;;;5045730;28;20499;-77
2022/04/16 11:10:41;;;;;;;1.10;0.63;;;14.10;70.40;;;;;;5051896;28;20548;-78
2022/04/16 11:13:08;;;;;;;3.30;0.90;;;14.20;69.90;;;;;;5059064;28;20053;-78
2022/04/16 11:15:34;;;;;;;1.67;0.75;;;14.30;69.50;;;;;;5037858;28;20044;-78
2022/04/16 11:18:01;;;;;;;2.13;0.80;;;14.40;68.50;;;;;;5045134;28;20338;-78
2022/04/16 11:20:28;;;;;;;1.48;0.90;;;14.60;67.20;;;;;;5050662;28;20175;-77
2022/04/16 11:22:54;;;;;;;1.77;0.90;;;14.80;67.60;;;;;;5051933;28;20045;-78
2022/04/16 11:25:25;;;;;;;3.22;0.70;;;14.90;67.80;;;;;;5070569;28;20111;-78
2022/04/16 11:36:11;;;;;;;2.92;1.08;;;15.40;68.20;;;;;;5052928;28;20040;-76
2022/04/16 11:38:39;;;;;;;6.10;1.13;;;15.60;66.60;;;;;;5052000;28;20044;-77
2022/04/16 11:41:14;;;;;;;3.28;0.80;;;15.70;66.20;;;;;;5068577;28;20048;-78
2022/04/16 11:43:47;;;;;;;1.80;0.80;;;15.80;64.50;;;;;;5051917;28;20057;-78
2022/04/16 11:46:14;;;;;;;1.73;0.70;;;15.90;63.70;;;;;;5041920;28;20047;-78
2022/04/16 11:48:48;;;;;;;2.15;0.80;;;15.90;63.80;;;;;;5072509;28;20044;-78
2022/04/16 11:51:15;;;;;;;3.72;0.80;;;16.10;63.60;;;;;;5071938;28;20051;-78
2022/04/16 11:53:45;;;;;;;4.80;0.80;;;16.20;63.60;;;;;;5031962;28;20045;-77
2022/04/16 11:56:11;;;;;;;5.25;0.90;;;16.30;63.00;;;;;;5064810;28;20317;-76
2022/04/16 11:58:36;;;;;;;5.43;0.85;;;16.50;63.00;;;;;;5070133;28;20082;-77
2022/04/16 12:01:03;;;;;;;2.63;0.93;;;16.60;61.90;;;;;;5067758;28;20177;-77
2022/04/16 12:03:39;;;;;;;3.08;1.05;;;16.70;61.10;;;;;;5043010;28;20049;-78
2022/04/16 12:06:10;;;;;;;1.38;0.77;;;16.80;61.10;;;;;;5062386;28;20098;-77
2022/04/16 12:08:36;;;;;;;2.97;1.17;;;17.00;60.80;;;;;;5050113;28;20124;-78
2022/04/16 12:11:03;;;;;;;4.60;1.00;;;17.10;61.30;;;;;;5063681;28;20048;-77
2022/04/16 12:13:36;;;;;;;2.97;0.77;;;17.20;60.90;;;;;;5044141;28;20507;-78
2022/04/16 12:16:11;;;;;;;3.63;1.08;;;17.30;60.00;;;;;;5044033;28;20090;-78
2022/04/16 12:18:41;;;;;;;2.47;0.90;;;17.50;59.00;;;;;;5058572;28;20052;-78
2022/04/16 12:21:09;;;;;;;2.33;1.00;;;17.60;59.70;;;;;;5047575;28;20041;-79
2022/04/16 12:23:38;;;;;;;2.58;1.23;;;17.80;59.10;;;;;;5068942;28;20448;-79
2022/04/16 12:26:05;;;;;;;1.80;0.80;;;18.00;60.10;;;;;;5044470;28;20048;-78
2022/04/16 12:28:39;;;;;;;2.10;1.00;;;18.10;58.70;;;;;;5049996;28;20488;-78
2022/04/16 12:31:07;;;;;;;1.80;0.70;;;18.30;58.20;;;;;;5049927;28;20045;-78
2022/04/16 12:33:32;;;;;;;4.07;1.17;;;18.40;58.90;;;;;;5078666;28;20045;-78
2022/04/16 12:35:59;;;;;;;5.55;1.50;;;18.50;59.20;;;;;;5064122;28;20131;-75
2022/04/16 12:38:25;;;;;;;4.03;1.20;;;18.60;58.10;;;;;;5048957;28;20048;-76
2022/04/16 12:41:03;;;;;;;3.17;1.00;;;18.80;58.30;;;;;;5043164;28;20040;-76
2022/04/16 12:43:29;;;;;;;3.30;0.90;;;18.90;57.00;;;;;;5036491;28;20032;-76
2022/04/16 12:45:55;;;;;;;2.40;0.93;;;19.00;56.00;;;;;;5058607;28;20059;-77
2022/04/16 12:48:20;;;;;;;2.20;0.80;;;19.10;54.10;;;;;;5067162;28;20091;-78
2022/04/16 12:50:46;;;;;;;3.28;0.80;;;19.00;54.40;;;;;;5043076;28;20064;-77
2022/04/16 12:53:11;;;;;;;1.40;0.80;;;19.10;54.30;;;;;;5064087;28;20160;-78
2022/04/16 12:55:37;;;;;;;2.22;0.70;;;19.00;55.40;;;;;;5059550;28;20048;-79
2022/04/16 12:58:03;;;;;;;2.70;0.80;;;19.10;54.30;;;;;;5048857;28;20398;-77
2022/04/16 13:00:29;;;;;;;2.30;0.77;;;19.20;54.80;;;;;;5068854;28;20052;-75
2022/04/16 13:02:55;;;;;;;2.75;0.85;;;19.30;54.10;;;;;;5050007;28;20128;-77
2022/04/16 13:05:21;;;;;;;2.92;1.00;;;19.40;53.60;;;;;;5046916;28;20127;-79